createdAt,value
2017-05-29T00:00:04.748Z,9.68
2017-05-29T00:02:33.783Z,10.86
2017-05-29T00:05:02.769Z,8.04
2017-05-29T00:07:32.008Z,10.90
2017-05-29T00:10:01.018Z,8.98
2017-05-29T00:12:30.014Z,9.28
2017-05-29T00:14:59.389Z,10.12
2017-05-29T00:17:28.352Z,10.20
2017-05-29T00:19:57.338Z,8.56
2017-05-29T00:22:25.815Z,7.80
2017-05-29T00:24:54.777Z,8.72
2017-05-29T00:27:23.760Z,10.68
2017-05-29T00:29:52.970Z,8.10
2017-05-29T00:32:21.208Z,10.18
2017-05-29T00:34:49.412Z,15.40
2017-05-29T00:37:18.777Z,7.90
2017-05-29T00:39:46.982Z,9.88
2017-05-29T00:42:15.187Z,10.06
2017-05-29T00:44:44.505Z,10.26
2017-05-29T00:47:13.475Z,10.48
2017-05-29T00:49:42.513Z,8.48
2017-05-29T00:52:11.927Z,9.52
2017-05-29T00:54:40.945Z,10.16
2017-05-29T00:57:09.971Z,9.37
2017-05-29T00:59:39.287Z,8.00
2017-05-29T01:02:08.294Z,13.74
2017-05-29T01:04:37.261Z,9.98
2017-05-29T01:07:06.555Z,13.22
2017-05-29T01:09:35.566Z,13.48
2017-05-29T01:12:04.555Z,9.92
2017-05-29T01:14:33.842Z,11.38
2017-05-29T01:17:02.843Z,9.72
2017-05-29T01:19:31.829Z,10.58
2017-05-29T01:22:01.041Z,8.20
2017-05-29T01:24:30.028Z,10.85
2017-05-29T01:26:58.245Z,12.68
2017-05-29T01:29:27.593Z,9.92
2017-05-29T01:31:56.576Z,10.77
2017-05-29T01:34:25.559Z,9.10
2017-05-29T01:36:54.765Z,10.22
2017-05-29T01:39:23.734Z,13.53
2017-05-29T01:41:52.706Z,17.57
2017-05-29T01:44:21.939Z,8.83
2017-05-29T01:46:50.939Z,10.40
2017-05-29T01:49:19.923Z,13.28
2017-05-29T01:51:49.223Z,14.43
2017-05-29T01:54:18.196Z,12.57
2017-05-29T01:56:46.443Z,16.82
2017-05-29T01:59:15.652Z,11.67
2017-05-29T02:01:44.622Z,13.60
2017-05-29T02:04:13.597Z,11.18
2017-05-29T02:06:42.161Z,10.67
2017-05-29T02:09:11.060Z,11.83
2017-05-29T02:11:40.063Z,14.02
2017-05-29T02:14:09.297Z,13.12
2017-05-29T02:16:38.299Z,17.08
2017-05-29T02:19:07.294Z,11.50
2017-05-29T02:21:36.499Z,12.47
2017-05-29T02:24:04.724Z,13.33
2017-05-29T02:26:33.724Z,13.78
2017-05-29T02:29:03.076Z,12.82
2017-05-29T02:31:32.081Z,14.87
2017-05-29T02:34:01.083Z,16.12
2017-05-29T02:36:30.358Z,19.02
2017-05-29T02:38:59.348Z,17.08
2017-05-29T02:41:28.329Z,19.77
2017-05-29T02:43:57.634Z,17.32
2017-05-29T02:46:26.548Z,17.32
2017-05-29T02:48:55.553Z,17.93
2017-05-29T02:51:24.765Z,18.60
2017-05-29T02:53:53.746Z,15.18
2017-05-29T02:56:22.721Z,28.32
2017-05-29T02:58:51.991Z,18.97
2017-05-29T03:01:20.983Z,17.85
2017-05-29T03:03:49.990Z,16.62
2017-05-29T03:06:19.267Z,15.75
2017-05-29T03:08:48.246Z,19.15
2017-05-29T03:11:17.137Z,18.40
2017-05-29T03:13:46.435Z,16.50
2017-05-29T03:16:15.404Z,15.38
2017-05-29T03:18:44.394Z,13.82
2017-05-29T03:21:13.580Z,11.28
2017-05-29T03:23:42.700Z,15.55
2017-05-29T03:26:11.701Z,12.92
2017-05-29T03:28:40.938Z,18.22
2017-05-29T03:31:09.943Z,15.15
2017-05-29T03:33:38.925Z,10.45
2017-05-29T03:36:08.086Z,13.10
2017-05-29T03:38:36.321Z,11.14
2017-05-29T03:41:05.308Z,16.17
2017-05-29T03:43:34.506Z,17.30
2017-05-29T03:46:03.497Z,12.48
2017-05-29T03:48:32.454Z,13.84
2017-05-29T03:51:01.714Z,11.92
2017-05-29T03:53:30.677Z,12.00
2017-05-29T03:55:59.645Z,14.56
2017-05-29T03:58:28.899Z,9.20
2017-05-29T04:00:57.882Z,11.50
2017-05-29T04:03:26.866Z,12.36
2017-05-29T04:05:56.174Z,10.60
2017-05-29T04:08:25.141Z,10.92
2017-05-29T04:10:54.144Z,10.72
2017-05-29T04:13:23.368Z,10.54
2017-05-29T04:15:52.336Z,13.78
2017-05-29T04:18:21.314Z,14.26
2017-05-29T04:20:50.528Z,14.40
2017-05-29T04:23:19.535Z,12.10
2017-05-29T04:25:48.500Z,15.80
2017-05-29T04:28:17.712Z,16.04
2017-05-29T04:30:46.685Z,15.62
2017-05-29T04:33:15.677Z,17.10
2017-05-29T04:35:44.886Z,17.50
2017-05-29T04:38:13.869Z,18.36
2017-05-29T04:40:42.855Z,16.82
2017-05-29T04:43:12.065Z,18.00
2017-05-29T04:45:41.054Z,17.04
2017-05-29T04:48:10.040Z,21.20
2017-05-29T04:50:39.242Z,19.34
2017-05-29T04:53:08.238Z,18.52
2017-05-29T04:55:37.221Z,25.78
2017-05-29T04:58:06.467Z,19.30
2017-05-29T05:00:35.426Z,21.06
2017-05-29T05:03:04.402Z,16.86
2017-05-29T05:05:33.711Z,17.78
2017-05-29T05:08:02.689Z,16.56
2017-05-29T05:10:31.656Z,19.90
2017-05-29T05:13:00.890Z,18.08
2017-05-29T05:15:29.936Z,17.98
2017-05-29T05:17:58.925Z,19.84
2017-05-29T05:20:28.131Z,21.80
2017-05-29T05:22:57.110Z,16.30
2017-05-29T05:25:25.321Z,14.32
2017-05-29T05:27:54.634Z,32.70
2017-05-29T05:30:23.617Z,16.54
2017-05-29T05:32:52.598Z,15.74
2017-05-29T05:35:21.914Z,15.56
2017-05-29T05:37:50.846Z,18.72
2017-05-29T05:40:19.868Z,20.54
2017-05-29T05:42:49.182Z,17.32
2017-05-29T05:45:18.199Z,18.20
2017-05-29T05:47:47.169Z,16.24
2017-05-29T05:50:16.470Z,15.92
2017-05-29T05:52:45.442Z,16.62
2017-05-29T05:55:14.419Z,17.60
2017-05-29T05:57:43.731Z,13.88
2017-05-29T06:00:12.720Z,16.22
2017-05-29T06:02:41.688Z,17.54
2017-05-29T06:05:10.921Z,14.76
2017-05-29T06:07:39.942Z,14.66
2017-05-29T06:10:08.917Z,13.40
2017-05-29T06:12:38.144Z,26.54
2017-05-29T06:15:07.106Z,14.70
2017-05-29T06:17:36.093Z,13.62
2017-05-29T06:20:05.385Z,10.24
2017-05-29T06:22:34.353Z,16.80
2017-05-29T06:25:03.315Z,12.60
2017-05-29T06:27:32.517Z,14.36
2017-05-29T06:30:01.466Z,17.96
2017-05-29T06:32:30.434Z,6.92
2017-05-29T06:34:59.869Z,11.82
2017-05-29T06:37:28.826Z,25.78
2017-05-29T06:39:57.825Z,19.24
2017-05-29T06:42:27.114Z,13.56
2017-05-29T06:44:56.108Z,11.46
2017-05-29T06:47:25.106Z,12.70
2017-05-29T06:49:54.343Z,15.16
2017-05-29T06:52:23.299Z,9.14
2017-05-29T06:54:52.299Z,7.58
2017-05-29T06:57:21.565Z,6.88
2017-05-29T06:59:50.548Z,10.94
2017-05-29T07:02:19.526Z,13.08
2017-05-29T07:04:48.770Z,9.88
2017-05-29T07:07:17.717Z,4.92
2017-05-29T07:09:46.691Z,10.70
2017-05-29T07:12:15.947Z,10.08
2017-05-29T07:14:44.925Z,6.72
2017-05-29T07:17:13.885Z,9.30
2017-05-29T07:19:43.238Z,7.32
2017-05-29T07:22:12.202Z,7.56
2017-05-29T07:24:41.188Z,9.80
2017-05-29T07:27:10.497Z,8.40
2017-05-29T07:29:39.520Z,6.34
2017-05-29T07:32:08.491Z,13.66
2017-05-29T07:34:37.877Z,5.58
2017-05-29T07:37:06.868Z,6.70
2017-05-29T07:39:35.852Z,8.14
2017-05-29T07:42:05.161Z,7.28
2017-05-29T07:44:34.125Z,6.60
2017-05-29T07:47:03.021Z,4.62
2017-05-29T07:49:32.267Z,5.58
2017-05-29T07:52:01.246Z,6.42
2017-05-29T07:54:30.222Z,7.44
2017-05-29T07:56:59.533Z,5.88
2017-05-29T07:59:28.424Z,6.70
2017-05-29T08:01:57.430Z,9.96
2017-05-29T08:04:26.819Z,5.30
2017-05-29T08:06:55.786Z,9.32
2017-05-29T08:09:24.802Z,5.72
2017-05-29T08:11:54.089Z,6.50
2017-05-29T08:14:23.059Z,7.78
2017-05-29T08:16:52.015Z,6.36
2017-05-29T08:19:21.210Z,6.92
2017-05-29T08:21:50.198Z,24.16
2017-05-29T08:24:19.180Z,10.56
2017-05-29T08:26:48.425Z,12.02
2017-05-29T08:29:17.394Z,9.14
2017-05-29T08:31:46.358Z,6.68
2017-05-29T08:34:15.563Z,6.30
2017-05-29T08:36:44.545Z,6.96
2017-05-29T08:39:13.593Z,4.52
2017-05-29T08:41:42.894Z,3.90
2017-05-29T08:44:11.113Z,7.22
2017-05-29T08:46:40.125Z,11.02
2017-05-29T08:49:09.495Z,4.64
2017-05-29T08:51:38.473Z,4.76
2017-05-29T08:54:07.449Z,6.96
2017-05-29T08:56:36.686Z,5.72
2017-05-29T08:59:05.674Z,4.24
2017-05-29T09:01:33.883Z,19.22
2017-05-29T09:04:03.232Z,11.50
2017-05-29T09:06:32.201Z,4.12
2017-05-29T09:09:01.173Z,5.18
2017-05-29T09:11:30.481Z,3.80
2017-05-29T09:13:59.882Z,3.38
2017-05-29T09:16:28.900Z,3.24
2017-05-29T09:18:58.130Z,6.44
2017-05-29T09:21:27.129Z,3.52
2017-05-29T09:23:56.092Z,7.76
2017-05-29T09:26:25.355Z,3.38
2017-05-29T09:28:54.340Z,4.14
2017-05-29T09:31:23.236Z,7.74
2017-05-29T09:33:52.561Z,4.02
2017-05-29T09:36:21.535Z,4.44
2017-05-29T09:38:50.512Z,6.84
2017-05-29T09:41:19.729Z,8.36
2017-05-29T09:43:48.667Z,7.20
2017-05-29T09:46:17.659Z,4.74
2017-05-29T09:48:46.886Z,4.44
2017-05-29T09:51:15.874Z,5.84
2017-05-29T09:53:44.758Z,2.58
2017-05-29T09:56:14.189Z,4.52
2017-05-29T09:58:43.173Z,11.98
2017-05-29T10:01:12.190Z,4.40
2017-05-29T10:03:41.425Z,4.42
2017-05-29T10:06:10.386Z,4.02
2017-05-29T10:08:39.960Z,5.08
2017-05-29T10:11:09.168Z,7.90
2017-05-29T10:13:38.138Z,4.50
2017-05-29T10:16:07.180Z,2.88
2017-05-29T10:18:36.433Z,3.52
2017-05-29T10:21:05.349Z,5.74
2017-05-29T10:23:34.311Z,2.80
2017-05-29T10:26:03.519Z,5.18
2017-05-29T10:28:32.497Z,2.68
2017-05-29T10:31:01.458Z,6.28
2017-05-29T10:33:30.710Z,4.96
2017-05-29T10:35:59.723Z,3.10
2017-05-29T10:38:28.684Z,2.30
2017-05-29T10:40:58.088Z,6.66
2017-05-29T10:43:27.048Z,3.56
2017-05-29T10:45:56.019Z,3.16
2017-05-29T10:48:25.350Z,2.90
2017-05-29T10:50:54.338Z,6.10
2017-05-29T10:53:23.343Z,5.84
2017-05-29T10:55:53.138Z,2.86
2017-05-29T10:58:22.128Z,2.32
2017-05-29T11:00:51.119Z,4.60
2017-05-29T11:03:20.415Z,3.36
2017-05-29T11:05:49.396Z,4.64
2017-05-29T11:08:18.369Z,10.38
2017-05-29T11:10:47.601Z,7.18
2017-05-29T11:13:16.622Z,9.30
2017-05-29T11:15:45.585Z,7.38
2017-05-29T11:18:14.894Z,8.94
2017-05-29T11:20:43.853Z,6.00
2017-05-29T11:23:12.819Z,3.78
2017-05-29T11:25:42.149Z,7.44
2017-05-29T11:28:11.120Z,6.26
2017-05-29T11:30:40.087Z,8.04
2017-05-29T11:33:09.334Z,10.04
2017-05-29T11:35:38.205Z,11.64
2017-05-29T11:38:09.258Z,4.92
2017-05-29T11:40:38.221Z,6.30
2017-05-29T11:43:07.177Z,5.18
2017-05-29T11:45:36.466Z,4.50
2017-05-29T11:48:05.448Z,3.84
2017-05-29T11:50:34.413Z,6.92
2017-05-29T11:53:03.625Z,3.06
2017-05-29T11:55:32.586Z,2.08
2017-05-29T11:58:01.565Z,2.80
2017-05-29T12:00:30.831Z,4.48
2017-05-29T12:02:59.805Z,2.90
2017-05-29T12:05:28.767Z,2.70
2017-05-29T12:07:58.085Z,4.20
2017-05-29T12:10:27.041Z,4.36
2017-05-29T12:12:56.017Z,3.92
2017-05-29T12:15:25.204Z,6.34
2017-05-29T12:17:54.267Z,3.02
2017-05-29T12:20:23.239Z,4.50
2017-05-29T12:22:52.536Z,7.42
2017-05-29T12:25:21.503Z,2.40
2017-05-29T12:27:50.485Z,3.28
2017-05-29T12:30:20.865Z,5.56
2017-05-29T12:32:49.819Z,16.62
2017-05-29T12:35:18.809Z,2.84
2017-05-29T12:37:48.120Z,2.76
2017-05-29T12:40:17.069Z,2.24
2017-05-29T12:42:46.059Z,2.82
2017-05-29T12:45:15.267Z,4.10
2017-05-29T12:47:44.236Z,1.50
2017-05-29T12:50:13.227Z,1.50
2017-05-29T12:52:42.485Z,1.40
2017-05-29T12:55:11.454Z,2.82
2017-05-29T12:57:40.414Z,1.50
2017-05-29T13:00:09.567Z,3.20
2017-05-29T13:02:38.580Z,3.04
2017-05-29T13:05:07.547Z,2.78
2017-05-29T13:07:36.855Z,3.12
2017-05-29T13:10:05.816Z,3.32
2017-05-29T13:12:34.771Z,2.12
2017-05-29T13:15:04.022Z,2.42
2017-05-29T13:17:32.979Z,2.16
2017-05-29T13:20:01.951Z,1.44
2017-05-29T13:22:31.193Z,4.90
2017-05-29T13:25:00.254Z,2.90
2017-05-29T13:27:29.235Z,2.92
2017-05-29T13:29:58.788Z,1.22
2017-05-29T13:32:26.996Z,2.00
2017-05-29T13:34:55.953Z,1.42
2017-05-29T13:37:25.256Z,1.14
2017-05-29T13:39:54.208Z,2.94
2017-05-29T13:42:23.174Z,2.08
2017-05-29T13:44:52.413Z,2.42
2017-05-29T13:47:21.377Z,1.74
2017-05-29T13:49:50.360Z,3.74
2017-05-29T13:52:19.563Z,5.42
2017-05-29T13:54:48.543Z,4.70
2017-05-29T13:57:17.514Z,1.84
2017-05-29T13:59:46.785Z,2.54
2017-05-29T14:02:15.751Z,2.02
2017-05-29T14:04:44.724Z,1.60
2017-05-29T14:07:13.948Z,4.76
2017-05-29T14:09:42.921Z,4.12
2017-05-29T14:12:11.888Z,1.94
2017-05-29T14:14:41.146Z,2.46
2017-05-29T14:17:09.326Z,1.94
2017-05-29T14:19:38.283Z,2.98
2017-05-29T14:22:07.602Z,3.14
2017-05-29T14:24:36.598Z,2.76
2017-05-29T14:27:05.561Z,1.76
2017-05-29T14:29:34.880Z,3.62
2017-05-29T14:32:03.846Z,4.26
2017-05-29T14:34:32.817Z,1.04
2017-05-29T14:37:02.033Z,2.40
2017-05-29T14:39:31.006Z,2.98
2017-05-29T14:41:59.982Z,1.62
2017-05-29T14:44:29.337Z,1.32
2017-05-29T14:46:58.318Z,2.54
2017-05-29T14:49:27.304Z,1.82
2017-05-29T14:51:56.615Z,1.12
2017-05-29T14:54:25.601Z,2.04
2017-05-29T14:56:54.587Z,2.68
2017-05-29T14:59:23.822Z,4.82
2017-05-29T15:01:52.786Z,3.70
2017-05-29T15:04:21.750Z,2.70
2017-05-29T15:06:50.986Z,1.72
2017-05-29T15:09:20.018Z,3.30
2017-05-29T15:11:48.988Z,1.60
2017-05-29T15:14:18.190Z,2.30
2017-05-29T15:16:47.221Z,4.24
2017-05-29T15:19:16.186Z,2.26
2017-05-29T15:21:45.405Z,2.50
2017-05-29T15:24:14.374Z,4.66
2017-05-29T15:26:43.338Z,1.46
2017-05-29T15:29:12.572Z,2.36
2017-05-29T15:31:41.523Z,2.90
2017-05-29T15:34:10.503Z,1.92
2017-05-29T15:36:39.740Z,8.44
2017-05-29T15:39:08.701Z,2.48
2017-05-29T15:41:37.687Z,5.28
2017-05-29T15:44:06.895Z,6.62
2017-05-29T15:46:35.850Z,6.16
2017-05-29T15:49:04.813Z,3.72
2017-05-29T15:51:34.147Z,2.24
2017-05-29T15:54:03.106Z,4.14
2017-05-29T15:56:32.081Z,20.54
2017-05-29T15:59:01.282Z,11.10
2017-05-29T16:01:30.284Z,3.26
2017-05-29T16:03:59.343Z,5.34
2017-05-29T16:06:28.704Z,5.12
2017-05-29T16:08:57.690Z,4.30
2017-05-29T16:11:26.644Z,9.94
2017-05-29T16:13:55.985Z,10.66
2017-05-29T16:16:24.954Z,3.64
2017-05-29T16:18:53.927Z,4.38
2017-05-29T16:21:23.262Z,4.04
2017-05-29T16:23:52.230Z,4.04
2017-05-29T16:26:21.192Z,4.74
2017-05-29T16:28:50.389Z,6.44
2017-05-29T16:31:19.370Z,8.16
2017-05-29T16:33:48.351Z,7.60
2017-05-29T16:36:17.614Z,3.74
2017-05-29T16:38:46.574Z,2.82
2017-05-29T16:41:15.570Z,5.62
2017-05-29T16:43:44.847Z,2.46
2017-05-29T16:46:13.849Z,2.10
2017-05-29T16:48:42.823Z,3.30
2017-05-29T16:51:12.091Z,1.52
2017-05-29T16:53:41.066Z,5.58
2017-05-29T16:56:10.070Z,7.20
2017-05-29T16:58:39.318Z,3.50
2017-05-29T17:01:08.289Z,5.30
2017-05-29T17:03:37.235Z,4.56
2017-05-29T17:06:06.459Z,5.72
2017-05-29T17:08:35.430Z,3.50
2017-05-29T17:11:04.409Z,2.26
2017-05-29T17:13:33.635Z,3.12
2017-05-29T17:16:02.497Z,2.72
2017-05-29T17:18:30.721Z,2.30
2017-05-29T17:20:59.692Z,3.64
2017-05-29T17:23:28.647Z,3.72
2017-05-29T17:25:57.647Z,6.36
2017-05-29T17:28:26.613Z,2.06
2017-05-29T17:30:55.611Z,3.52
2017-05-29T17:33:24.597Z,3.32
2017-05-29T17:35:53.601Z,4.38
2017-05-29T17:38:22.568Z,8.38
2017-05-29T17:40:51.598Z,3.34
2017-05-29T17:43:20.498Z,2.20
2017-05-29T17:45:49.598Z,3.42
2017-05-29T17:48:18.578Z,3.72
2017-05-29T17:50:47.567Z,2.60
2017-05-29T17:53:16.540Z,5.58
2017-05-29T17:55:45.558Z,3.90
2017-05-29T17:58:14.527Z,5.04
2017-05-29T18:00:43.515Z,3.20
2017-05-29T18:03:12.471Z,3.98
2017-05-29T18:05:41.473Z,4.00
2017-05-29T18:08:10.429Z,3.52
2017-05-29T18:10:39.412Z,4.16
2017-05-29T18:13:08.385Z,2.08
2017-05-29T18:15:37.371Z,2.50
2017-05-29T18:18:06.360Z,2.36
2017-05-29T18:20:35.351Z,3.68
2017-05-29T18:23:04.324Z,4.12
2017-05-29T18:25:33.296Z,6.52
2017-05-29T18:28:02.293Z,3.88
2017-05-29T18:30:31.294Z,5.50
2017-05-29T18:33:00.267Z,3.58
2017-05-29T18:35:29.266Z,5.54
2017-05-29T18:37:58.277Z,6.44
2017-05-29T18:40:27.268Z,2.26
2017-05-29T18:42:56.298Z,3.08
2017-05-29T18:45:25.303Z,5.36
2017-05-29T18:47:54.279Z,8.78
2017-05-29T18:50:23.272Z,5.62
2017-05-29T18:52:52.246Z,8.62
2017-05-29T18:55:21.233Z,4.72
2017-05-29T18:57:50.228Z,6.82
2017-05-29T19:00:19.212Z,9.26
2017-05-29T19:02:48.141Z,5.20
2017-05-29T19:05:17.138Z,4.16
2017-05-29T19:07:46.149Z,10.34
2017-05-29T19:10:15.164Z,4.42
2017-05-29T19:12:44.142Z,3.36
2017-05-29T19:15:13.138Z,4.94
2017-05-29T19:17:42.102Z,6.62
2017-05-29T19:20:11.356Z,2.10
2017-05-29T19:22:40.625Z,4.68
2017-05-29T19:25:09.667Z,11.00
2017-05-29T19:27:38.695Z,5.50
2017-05-29T19:30:07.686Z,3.56
2017-05-29T19:32:36.688Z,3.74
2017-05-29T19:35:05.683Z,4.70
2017-05-29T19:37:33.958Z,5.70
2017-05-29T19:40:02.937Z,3.14
2017-05-29T19:42:31.943Z,6.32
2017-05-29T19:45:00.935Z,15.22
2017-05-29T19:47:30.011Z,15.00
2017-05-29T19:49:59.019Z,7.60
2017-05-29T19:52:28.022Z,3.98
2017-05-29T19:54:57.017Z,14.18
2017-05-29T19:57:26.053Z,9.90
2017-05-29T19:59:55.107Z,4.86
2017-05-29T20:02:24.178Z,5.98
2017-05-29T20:04:53.153Z,5.40
2017-05-29T20:07:22.183Z,7.22
2017-05-29T20:09:51.191Z,3.92
2017-05-29T20:12:19.421Z,6.28
2017-05-29T20:14:48.408Z,4.10
2017-05-29T20:17:17.416Z,8.66
2017-05-29T20:19:46.371Z,7.08
2017-05-29T20:22:15.357Z,5.54
2017-05-29T20:24:44.335Z,3.48
2017-05-29T20:27:13.320Z,4.46
2017-05-29T20:29:42.303Z,10.36
2017-05-29T20:32:11.289Z,3.54
2017-05-29T20:34:40.278Z,4.30
2017-05-29T20:37:09.273Z,3.10
2017-05-29T20:39:38.231Z,3.92
2017-05-29T20:42:07.230Z,6.34
2017-05-29T20:44:36.222Z,3.70
2017-05-29T20:47:05.205Z,3.72
2017-05-29T20:49:34.174Z,4.08
2017-05-29T20:52:03.157Z,7.16
2017-05-29T20:54:31.346Z,4.88
2017-05-29T20:57:00.350Z,5.92
2017-05-29T20:59:29.354Z,5.28
2017-05-29T21:01:57.618Z,4.74
2017-05-29T21:04:26.630Z,3.54
2017-05-29T21:06:55.604Z,3.24
2017-05-29T21:09:24.602Z,6.60
2017-05-29T21:11:53.612Z,4.64
2017-05-29T21:14:22.589Z,5.34
2017-05-29T21:16:51.595Z,6.60
2017-05-29T21:19:20.562Z,4.30
2017-05-29T21:21:49.567Z,3.76
2017-05-29T21:24:18.602Z,5.04
2017-05-29T21:26:47.608Z,3.24
2017-05-29T21:29:16.579Z,3.82
2017-05-29T21:31:45.840Z,6.26
2017-05-29T21:34:14.842Z,4.94
2017-05-29T21:36:43.819Z,4.70
2017-05-29T21:39:12.789Z,3.78
2017-05-29T21:41:41.012Z,5.40
2017-05-29T21:44:09.998Z,7.02
2017-05-29T21:46:38.966Z,6.08
2017-05-29T21:49:07.941Z,8.76
2017-05-29T21:51:36.927Z,4.16
2017-05-29T21:54:05.886Z,6.24
2017-05-29T21:56:34.103Z,12.32
2017-05-29T21:59:03.123Z,4.86
2017-05-29T22:01:32.102Z,3.90
2017-05-29T22:04:01.111Z,8.14
2017-05-29T22:06:30.087Z,6.00
2017-05-29T22:08:59.068Z,10.34
2017-05-29T22:11:28.053Z,5.78
2017-05-29T22:13:57.047Z,4.90
2017-05-29T22:16:25.912Z,5.74
2017-05-29T22:18:54.963Z,4.10
2017-05-29T22:21:23.945Z,5.82
2017-05-29T22:23:52.936Z,5.44
2017-05-29T22:26:21.919Z,7.20
2017-05-29T22:28:50.913Z,5.42
2017-05-29T22:31:19.131Z,5.84
2017-05-29T22:33:48.139Z,6.46
2017-05-29T22:36:17.054Z,8.60
2017-05-29T22:38:46.093Z,5.22
2017-05-29T22:41:14.289Z,6.34
2017-05-29T22:43:42.517Z,4.40
2017-05-29T22:46:11.520Z,3.76
2017-05-29T22:48:40.143Z,5.62
2017-05-29T22:51:09.119Z,6.90
2017-05-29T22:53:38.089Z,8.36
2017-05-29T22:56:07.067Z,8.36
2017-05-29T22:58:36.068Z,8.08
2017-05-29T23:01:05.034Z,4.72
2017-05-29T23:03:34.063Z,4.86
2017-05-29T23:06:02.258Z,9.74
2017-05-29T23:08:31.237Z,6.08
2017-05-29T23:11:00.209Z,5.92
2017-05-29T23:13:28.454Z,10.24
2017-05-29T23:15:56.647Z,5.76
2017-05-29T23:18:25.640Z,6.34
2017-05-29T23:20:54.612Z,9.20
2017-05-29T23:23:26.063Z,7.04
2017-05-29T23:25:55.194Z,5.28
2017-05-29T23:28:23.421Z,5.94
2017-05-29T23:30:52.433Z,9.32
2017-05-29T23:33:21.486Z,10.10
2017-05-29T23:35:50.380Z,8.32
2017-05-29T23:38:19.782Z,5.20
2017-05-29T23:40:48.754Z,6.42
2017-05-29T23:43:17.725Z,7.16
2017-05-29T23:45:46.712Z,7.18
2017-05-29T23:48:15.680Z,7.84
2017-05-29T23:50:44.677Z,7.36
2017-05-29T23:53:13.653Z,11.58
2017-05-29T23:55:42.717Z,10.68
2017-05-29T23:58:10.924Z,5.56
